sensor_id;sensor_type;location;lat;lon;timestamp;P1;durP1;ratioP1;P2;durP2;ratioP2
6527;SDS011;64597;42.664;23.256;2023-04-01T00:00:54;11.73;;;5.97;;
6527;SDS011;64597;42.664;23.256;2023-04-01T00:03:22;14.07;;;6.70;;
6527;SDS011;64597;42.664;23.256;2023-04-01T00:05:48;11.07;;;6.13;;
6527;SDS011;64597;42.664;23.256;2023-04-01T00:08:14;9.38;;;5.90;;
6527;SDS011;64597;42.664;23.256;2023-04-01T00:10:41;15.50;;;7.10;;
6527;SDS011;64597;42.664;23.256;2023-04-01T00:13:06;15.23;;;7.28;;
6527;SDS011;64597;42.664;23.256;2023-04-01T00:15:32;14.77;;;6.75;;
6527;SDS011;64597;42.664;23.256;2023-04-01T00:17:58;13.48;;;6.95;;
6527;SDS011;64597;42.664;23.256;2023-04-01T00:20:24;11.18;;;6.35;;
6527;SDS011;64597;42.664;23.256;2023-04-01T00:22:49;12.43;;;6.55;;
6527;SDS011;64597;42.664;23.256;2023-04-01T00:25:15;15.60;;;7.63;;
6527;SDS011;64597;42.664;23.256;2023-04-01T00:27:41;16.52;;;7.40;;
6527;SDS011;64597;42.664;23.256;2023-04-01T00:30:07;17.80;;;8.35;;
6527;SDS011;64597;42.664;23.256;2023-04-01T00:32:33;16.88;;;8.77;;
6527;SDS011;64597;42.664;23.256;2023-04-01T00:35:00;16.75;;;8.48;;
6527;SDS011;64597;42.664;23.256;2023-04-01T00:37:26;16.65;;;9.55;;
6527;SDS011;64597;42.664;23.256;2023-04-01T00:39:52;15.90;;;8.63;;
6527;SDS011;64597;42.664;23.256;2023-04-01T00:42:18;18.45;;;10.10;;
6527;SDS011;64597;42.664;23.256;2023-04-01T00:44:45;20.23;;;9.38;;
6527;SDS011;64597;42.664;23.256;2023-04-01T00:47:16;15.63;;;9.00;;
6527;SDS011;64597;42.664;23.256;2023-04-01T00:49:43;18.17;;;10.65;;
6527;SDS011;64597;42.664;23.256;2023-04-01T00:52:11;18.02;;;9.82;;
6527;SDS011;64597;42.664;23.256;2023-04-01T00:54:41;14.00;;;9.02;;
6527;SDS011;64597;42.664;23.256;2023-04-01T00:57:10;14.15;;;9.05;;
6527;SDS011;64597;42.664;23.256;2023-04-01T00:59:41;20.38;;;9.05;;
6527;SDS011;64597;42.664;23.256;2023-04-01T01:02:09;16.05;;;7.75;;
6527;SDS011;64597;42.664;23.256;2023-04-01T01:04:37;14.40;;;7.78;;
6527;SDS011;64597;42.664;23.256;2023-04-01T01:10:26;13.82;;;7.15;;
6527;SDS011;64597;42.664;23.256;2023-04-01T01:31:37;12.40;;;6.05;;
6527;SDS011;64597;42.664;23.256;2023-04-01T01:36:59;12.23;;;6.40;;
6527;SDS011;64597;42.664;23.256;2023-04-01T01:39:30;10.15;;;5.75;;
6527;SDS011;64597;42.664;23.256;2023-04-01T01:42:01;9.60;;;5.53;;
6527;SDS011;64597;42.664;23.256;2023-04-01T01:44:30;9.00;;;5.20;;
6527;SDS011;64597;42.664;23.256;2023-04-01T01:46:58;10.10;;;5.68;;
6527;SDS011;64597;42.664;23.256;2023-04-01T01:49:25;10.23;;;4.40;;
6527;SDS011;64597;42.664;23.256;2023-04-01T01:51:52;12.13;;;5.65;;
6527;SDS011;64597;42.664;23.256;2023-04-01T01:54:18;10.05;;;5.40;;
6527;SDS011;64597;42.664;23.256;2023-04-01T01:56:44;8.75;;;5.10;;
6527;SDS011;64597;42.664;23.256;2023-04-01T01:59:14;9.27;;;4.40;;
6527;SDS011;64597;42.664;23.256;2023-04-01T02:01:43;8.27;;;4.15;;
6527;SDS011;64597;42.664;23.256;2023-04-01T02:04:13;11.15;;;4.07;;
6527;SDS011;64597;42.664;23.256;2023-04-01T02:06:42;8.02;;;3.85;;
6527;SDS011;64597;42.664;23.256;2023-04-01T02:09:13;10.35;;;4.18;;
6527;SDS011;64597;42.664;23.256;2023-04-01T02:11:43;9.00;;;4.38;;
6527;SDS011;64597;42.664;23.256;2023-04-01T02:14:15;8.80;;;4.75;;
6527;SDS011;64597;42.664;23.256;2023-04-01T02:16:44;9.60;;;4.72;;
6527;SDS011;64597;42.664;23.256;2023-04-01T02:19:15;8.95;;;4.18;;
6527;SDS011;64597;42.664;23.256;2023-04-01T02:21:47;7.18;;;3.83;;
6527;SDS011;64597;42.664;23.256;2023-04-01T02:24:20;9.23;;;4.28;;
6527;SDS011;64597;42.664;23.256;2023-04-01T02:26:50;7.35;;;4.03;;
6527;SDS011;64597;42.664;23.256;2023-04-01T02:29:16;7.28;;;4.43;;
6527;SDS011;64597;42.664;23.256;2023-04-01T02:31:44;10.70;;;4.15;;
6527;SDS011;64597;42.664;23.256;2023-04-01T02:34:10;9.98;;;4.50;;
6527;SDS011;64597;42.664;23.256;2023-04-01T02:36:36;11.88;;;4.80;;
6527;SDS011;64597;42.664;23.256;2023-04-01T02:39:03;12.63;;;4.05;;
6527;SDS011;64597;42.664;23.256;2023-04-01T02:41:29;11.60;;;5.13;;
6527;SDS011;64597;42.664;23.256;2023-04-01T02:43:55;8.10;;;4.05;;
6527;SDS011;64597;42.664;23.256;2023-04-01T02:46:23;6.80;;;3.75;;
6527;SDS011;64597;42.664;23.256;2023-04-01T02:48:49;9.95;;;4.80;;
6527;SDS011;64597;42.664;23.256;2023-04-01T02:51:14;8.23;;;4.25;;
6527;SDS011;64597;42.664;23.256;2023-04-01T02:53:40;8.30;;;3.92;;
6527;SDS011;64597;42.664;23.256;2023-04-01T02:56:05;10.02;;;3.92;;
6527;SDS011;64597;42.664;23.256;2023-04-01T02:58:31;8.63;;;4.55;;
6527;SDS011;64597;42.664;23.256;2023-04-01T03:00:56;7.53;;;3.92;;
6527;SDS011;64597;42.664;23.256;2023-04-01T03:03:21;10.18;;;4.88;;
6527;SDS011;64597;42.664;23.256;2023-04-01T03:05:47;8.38;;;4.30;;
6527;SDS011;64597;42.664;23.256;2023-04-01T03:08:12;6.28;;;3.95;;
6527;SDS011;64597;42.664;23.256;2023-04-01T03:10:38;7.45;;;3.60;;
6527;SDS011;64597;42.664;23.256;2023-04-01T03:13:03;7.57;;;3.72;;
6527;SDS011;64597;42.664;23.256;2023-04-01T03:15:29;7.72;;;4.03;;
6527;SDS011;64597;42.664;23.256;2023-04-01T03:17:54;10.77;;;4.25;;
6527;SDS011;64597;42.664;23.256;2023-04-01T03:20:20;8.25;;;4.40;;
6527;SDS011;64597;42.664;23.256;2023-04-01T03:22:45;5.43;;;2.13;;
6527;SDS011;64597;42.664;23.256;2023-04-01T03:25:11;5.05;;;3.03;;
6527;SDS011;64597;42.664;23.256;2023-04-01T03:27:37;4.07;;;3.60;;
6527;SDS011;64597;42.664;23.256;2023-04-01T03:30:03;2.70;;;1.63;;
6527;SDS011;64597;42.664;23.256;2023-04-01T03:32:30;4.70;;;1.45;;
6527;SDS011;64597;42.664;23.256;2023-04-01T03:34:56;5.93;;;1.20;;
6527;SDS011;64597;42.664;23.256;2023-04-01T03:37:22;2.97;;;1.27;;
6527;SDS011;64597;42.664;23.256;2023-04-01T03:39:48;2.42;;;1.13;;
6527;SDS011;64597;42.664;23.256;2023-04-01T03:42:14;7.95;;;1.30;;
6527;SDS011;64597;42.664;23.256;2023-04-01T03:44:40;2.10;;;1.42;;
6527;SDS011;64597;42.664;23.256;2023-04-01T03:47:05;5.78;;;1.30;;
6527;SDS011;64597;42.664;23.256;2023-04-01T03:49:30;2.67;;;1.23;;
6527;SDS011;64597;42.664;23.256;2023-04-01T03:51:57;4.78;;;1.33;;
6527;SDS011;64597;42.664;23.256;2023-04-01T03:54:23;3.92;;;1.35;;
6527;SDS011;64597;42.664;23.256;2023-04-01T03:56:48;4.38;;;1.48;;
6527;SDS011;64597;42.664;23.256;2023-04-01T03:59:14;6.25;;;2.28;;
6527;SDS011;64597;42.664;23.256;2023-04-01T04:01:40;7.55;;;2.97;;
6527;SDS011;64597;42.664;23.256;2023-04-01T04:04:06;5.53;;;2.53;;
6527;SDS011;64597;42.664;23.256;2023-04-01T04:06:32;5.18;;;2.58;;
6527;SDS011;64597;42.664;23.256;2023-04-01T04:08:58;4.38;;;2.55;;
6527;SDS011;64597;42.664;23.256;2023-04-01T04:11:23;7.18;;;2.83;;
6527;SDS011;64597;42.664;23.256;2023-04-01T04:13:48;5.38;;;2.42;;
6527;SDS011;64597;42.664;23.256;2023-04-01T04:16:14;4.35;;;2.42;;
6527;SDS011;64597;42.664;23.256;2023-04-01T04:18:41;5.00;;;2.90;;
6527;SDS011;64597;42.664;23.256;2023-04-01T04:21:06;5.65;;;2.60;;
6527;SDS011;64597;42.664;23.256;2023-04-01T04:23:32;5.72;;;3.17;;
6527;SDS011;64597;42.664;23.256;2023-04-01T04:26:08;5.53;;;2.63;;
6527;SDS011;64597;42.664;23.256;2023-04-01T04:28:35;5.45;;;2.58;;
6527;SDS011;64597;42.664;23.256;2023-04-01T04:31:01;4.45;;;2.83;;
6527;SDS011;64597;42.664;23.256;2023-04-01T04:33:27;8.38;;;3.10;;
6527;SDS011;64597;42.664;23.256;2023-04-01T04:35:55;8.60;;;3.13;;
6527;SDS011;64597;42.664;23.256;2023-04-01T04:38:21;9.50;;;3.85;;
6527;SDS011;64597;42.664;23.256;2023-04-01T04:40:47;7.07;;;3.70;;
6527;SDS011;64597;42.664;23.256;2023-04-01T04:43:13;9.38;;;4.85;;
6527;SDS011;64597;42.664;23.256;2023-04-01T04:45:40;7.90;;;3.92;;
6527;SDS011;64597;42.664;23.256;2023-04-01T04:48:07;8.93;;;5.25;;
6527;SDS011;64597;42.664;23.256;2023-04-01T04:50:34;7.82;;;4.47;;
6527;SDS011;64597;42.664;23.256;2023-04-01T04:52:59;8.55;;;4.85;;
6527;SDS011;64597;42.664;23.256;2023-04-01T04:55:25;10.60;;;4.40;;
6527;SDS011;64597;42.664;23.256;2023-04-01T04:57:50;11.00;;;5.35;;
6527;SDS011;64597;42.664;23.256;2023-04-01T05:00:16;8.38;;;5.28;;
6527;SDS011;64597;42.664;23.256;2023-04-01T05:02:41;8.15;;;5.50;;
6527;SDS011;64597;42.664;23.256;2023-04-01T05:05:07;11.93;;;6.22;;
6527;SDS011;64597;42.664;23.256;2023-04-01T05:07:33;9.68;;;5.75;;
6527;SDS011;64597;42.664;23.256;2023-04-01T05:09:59;12.00;;;6.10;;
6527;SDS011;64597;42.664;23.256;2023-04-01T05:12:25;8.70;;;5.65;;
6527;SDS011;64597;42.664;23.256;2023-04-01T05:14:50;11.85;;;6.68;;
6527;SDS011;64597;42.664;23.256;2023-04-01T05:17:16;10.32;;;6.80;;
6527;SDS011;64597;42.664;23.256;2023-04-01T05:19:41;14.88;;;7.38;;
6527;SDS011;64597;42.664;23.256;2023-04-01T05:22:07;9.23;;;4.40;;
6527;SDS011;64597;42.664;23.256;2023-04-01T05:24:32;10.43;;;4.95;;
6527;SDS011;64597;42.664;23.256;2023-04-01T05:26:58;8.25;;;4.47;;
6527;SDS011;64597;42.664;23.256;2023-04-01T05:29:24;7.85;;;4.82;;
6527;SDS011;64597;42.664;23.256;2023-04-01T05:31:51;10.40;;;6.30;;
6527;SDS011;64597;42.664;23.256;2023-04-01T05:34:17;14.90;;;6.63;;
6527;SDS011;64597;42.664;23.256;2023-04-01T05:36:42;13.50;;;6.95;;
6527;SDS011;64597;42.664;23.256;2023-04-01T05:39:09;17.63;;;7.65;;
6527;SDS011;64597;42.664;23.256;2023-04-01T05:41:35;14.13;;;7.97;;
6527;SDS011;64597;42.664;23.256;2023-04-01T05:44:02;14.88;;;7.22;;
6527;SDS011;64597;42.664;23.256;2023-04-01T05:46:29;13.55;;;7.32;;
6527;SDS011;64597;42.664;23.256;2023-04-01T05:48:55;14.32;;;6.68;;
6527;SDS011;64597;42.664;23.256;2023-04-01T05:51:21;12.75;;;7.45;;
6527;SDS011;64597;42.664;23.256;2023-04-01T05:53:47;8.05;;;4.35;;
6527;SDS011;64597;42.664;23.256;2023-04-01T05:56:12;7.65;;;3.60;;
6527;SDS011;64597;42.664;23.256;2023-04-01T05:58:38;12.43;;;5.03;;
6527;SDS011;64597;42.664;23.256;2023-04-01T06:01:05;13.07;;;5.57;;
6527;SDS011;64597;42.664;23.256;2023-04-01T06:03:32;13.60;;;6.22;;
6527;SDS011;64597;42.664;23.256;2023-04-01T06:05:58;11.65;;;6.10;;
6527;SDS011;64597;42.664;23.256;2023-04-01T06:08:24;12.00;;;5.95;;
6527;SDS011;64597;42.664;23.256;2023-04-01T06:14:04;17.05;;;10.80;;
6527;SDS011;64597;42.664;23.256;2023-04-01T06:19:24;7.47;;;4.10;;
6527;SDS011;64597;42.664;23.256;2023-04-01T06:52:29;13.02;;;5.72;;
6527;SDS011;64597;42.664;23.256;2023-04-01T06:55:00;8.52;;;5.15;;
6527;SDS011;64597;42.664;23.256;2023-04-01T06:57:39;9.60;;;4.90;;
6527;SDS011;64597;42.664;23.256;2023-04-01T07:00:19;16.73;;;5.93;;
6527;SDS011;64597;42.664;23.256;2023-04-01T07:02:48;16.38;;;5.55;;
6527;SDS011;64597;42.664;23.256;2023-04-01T07:05:20;11.40;;;4.35;;
6527;SDS011;64597;42.664;23.256;2023-04-01T07:07:48;9.50;;;4.60;;
6527;SDS011;64597;42.664;23.256;2023-04-01T07:12:58;7.38;;;3.05;;
6527;SDS011;64597;42.664;23.256;2023-04-01T07:15:31;7.57;;;3.88;;
6527;SDS011;64597;42.664;23.256;2023-04-01T07:18:09;10.50;;;3.50;;
6527;SDS011;64597;42.664;23.256;2023-04-01T07:20:41;9.35;;;3.63;;
6527;SDS011;64597;42.664;23.256;2023-04-01T07:23:16;8.07;;;3.75;;
6527;SDS011;64597;42.664;23.256;2023-04-01T07:25:58;8.32;;;3.78;;
6527;SDS011;64597;42.664;23.256;2023-04-01T07:28:30;7.25;;;3.85;;
6527;SDS011;64597;42.664;23.256;2023-04-01T07:34:06;6.47;;;3.45;;
6527;SDS011;64597;42.664;23.256;2023-04-01T07:36:39;5.18;;;3.35;;
6527;SDS011;64597;42.664;23.256;2023-04-01T07:55:36;7.13;;;3.55;;
6527;SDS011;64597;42.664;23.256;2023-04-01T08:00:46;6.43;;;3.65;;
6527;SDS011;64597;42.664;23.256;2023-04-01T08:11:58;5.05;;;3.60;;
6527;SDS011;64597;42.664;23.256;2023-04-01T08:17:26;7.72;;;3.42;;
6527;SDS011;64597;42.664;23.256;2023-04-01T08:20:03;8.25;;;4.00;;
6527;SDS011;64597;42.664;23.256;2023-04-01T08:22:43;7.63;;;3.50;;
6527;SDS011;64597;42.664;23.256;2023-04-01T08:25:16;5.47;;;3.50;;
6527;SDS011;64597;42.664;23.256;2023-04-01T08:27:48;6.63;;;3.70;;
6527;SDS011;64597;42.664;23.256;2023-04-01T08:33:27;8.00;;;4.13;;
6527;SDS011;64597;42.664;23.256;2023-04-01T08:41:41;10.38;;;5.72;;
6527;SDS011;64597;42.664;23.256;2023-04-01T08:52:13;11.32;;;4.47;;
6527;SDS011;64597;42.664;23.256;2023-04-01T08:57:45;11.05;;;4.28;;
6527;SDS011;64597;42.664;23.256;2023-04-01T09:06:37;6.18;;;2.97;;
6527;SDS011;64597;42.664;23.256;2023-04-01T09:15:32;4.93;;;2.13;;
6527;SDS011;64597;42.664;23.256;2023-04-01T09:25:46;5.05;;;2.28;;
6527;SDS011;64597;42.664;23.256;2023-04-01T09:34:25;4.75;;;1.52;;
6527;SDS011;64597;42.664;23.256;2023-04-01T10:21:45;5.30;;;1.45;;
6527;SDS011;64597;42.664;23.256;2023-04-01T10:24:35;4.53;;;1.30;;
6527;SDS011;64597;42.664;23.256;2023-04-01T10:38:44;2.38;;;1.08;;
6527;SDS011;64597;42.664;23.256;2023-04-01T10:50:14;3.35;;;1.13;;
6527;SDS011;64597;42.664;23.256;2023-04-01T10:58:29;8.00;;;1.70;;
6527;SDS011;64597;42.664;23.256;2023-04-01T11:23:30;2.78;;;1.33;;
6527;SDS011;64597;42.664;23.256;2023-04-01T11:34:00;4.35;;;1.40;;
6527;SDS011;64597;42.664;23.256;2023-04-01T11:42:09;3.83;;;1.55;;
6527;SDS011;64597;42.664;23.256;2023-04-01T11:45:08;3.80;;;1.50;;
6527;SDS011;64597;42.664;23.256;2023-04-01T11:50:58;4.15;;;1.75;;
6527;SDS011;64597;42.664;23.256;2023-04-01T12:05:00;5.25;;;2.03;;
6527;SDS011;64597;42.664;23.256;2023-04-01T12:13:02;4.32;;;2.15;;
6527;SDS011;64597;42.664;23.256;2023-04-01T12:18:13;8.75;;;2.60;;
6527;SDS011;64597;42.664;23.256;2023-04-01T12:35:07;6.30;;;2.53;;
6527;SDS011;64597;42.664;23.256;2023-04-01T12:51:29;9.32;;;3.65;;
6527;SDS011;64597;42.664;23.256;2023-04-01T13:17:17;5.15;;;3.05;;
6527;SDS011;64597;42.664;23.256;2023-04-01T13:22:28;5.03;;;2.15;;
6527;SDS011;64597;42.664;23.256;2023-04-01T13:27:45;3.13;;;1.48;;
6527;SDS011;64597;42.664;23.256;2023-04-01T13:35:36;1.70;;;1.30;;
6527;SDS011;64597;42.664;23.256;2023-04-01T14:11:10;2.13;;;0.95;;
6527;SDS011;64597;42.664;23.256;2023-04-01T14:28:46;1.30;;;0.70;;
6527;SDS011;64597;42.664;23.256;2023-04-01T14:34:00;2.25;;;0.93;;
6527;SDS011;64597;42.664;23.256;2023-04-01T14:36:46;4.25;;;1.33;;
6527;SDS011;64597;42.664;23.256;2023-04-01T14:47:54;2.50;;;0.85;;
6527;SDS011;64597;42.664;23.256;2023-04-01T14:50:26;1.98;;;0.63;;
6527;SDS011;64597;42.664;23.256;2023-04-01T15:00:55;3.00;;;1.35;;
6527;SDS011;64597;42.664;23.256;2023-04-01T15:24:40;3.63;;;1.15;;
6527;SDS011;64597;42.664;23.256;2023-04-01T15:27:20;1.38;;;0.82;;
6527;SDS011;64597;42.664;23.256;2023-04-01T15:30:15;1.70;;;1.30;;
6527;SDS011;64597;42.664;23.256;2023-04-01T15:40:40;3.20;;;1.65;;
6527;SDS011;64597;42.664;23.256;2023-04-01T15:45:56;3.72;;;1.40;;
6527;SDS011;64597;42.664;23.256;2023-04-01T15:48:39;3.20;;;1.20;;
6527;SDS011;64597;42.664;23.256;2023-04-01T15:51:27;1.92;;;0.70;;
6527;SDS011;64597;42.664;23.256;2023-04-01T15:54:24;1.33;;;0.60;;
6527;SDS011;64597;42.664;23.256;2023-04-01T16:07:52;2.15;;;0.80;;
6527;SDS011;64597;42.664;23.256;2023-04-01T16:16:34;2.03;;;1.05;;
6527;SDS011;64597;42.664;23.256;2023-04-01T16:19:25;1.65;;;1.20;;
6527;SDS011;64597;42.664;23.256;2023-04-01T16:22:06;3.38;;;0.88;;
6527;SDS011;64597;42.664;23.256;2023-04-01T16:27:40;2.72;;;1.20;;
6527;SDS011;64597;42.664;23.256;2023-04-01T16:36:08;0.93;;;0.50;;
6527;SDS011;64597;42.664;23.256;2023-04-01T16:38:46;1.73;;;0.75;;
6527;SDS011;64597;42.664;23.256;2023-04-01T16:41:20;1.10;;;0.70;;
6527;SDS011;64597;42.664;23.256;2023-04-01T16:43:56;1.08;;;0.60;;
6527;SDS011;64597;42.664;23.256;2023-04-01T16:46:40;1.38;;;0.90;;
6527;SDS011;64597;42.664;23.256;2023-04-01T16:51:47;1.73;;;0.80;;
6527;SDS011;64597;42.664;23.256;2023-04-01T16:59:36;1.23;;;0.60;;
6527;SDS011;64597;42.664;23.256;2023-04-01T17:04:45;0.75;;;0.50;;
6527;SDS011;64597;42.664;23.256;2023-04-01T17:21:05;1.55;;;0.80;;
6527;SDS011;64597;42.664;23.256;2023-04-01T17:23:38;1.60;;;0.98;;
6527;SDS011;64597;42.664;23.256;2023-04-01T17:26:16;1.30;;;0.98;;
6527;SDS011;64597;42.664;23.256;2023-04-01T17:32:02;2.13;;;1.20;;
6527;SDS011;64597;42.664;23.256;2023-04-01T17:40:26;2.88;;;1.40;;
6527;SDS011;64597;42.664;23.256;2023-04-01T18:07:45;3.15;;;1.23;;
6527;SDS011;64597;42.664;23.256;2023-04-01T18:10:25;2.60;;;1.23;;
6527;SDS011;64597;42.664;23.256;2023-04-01T18:24:10;3.78;;;1.30;;
6527;SDS011;64597;42.664;23.256;2023-04-01T18:26:46;2.08;;;1.15;;
6527;SDS011;64597;42.664;23.256;2023-04-01T18:35:17;2.42;;;1.35;;
6527;SDS011;64597;42.664;23.256;2023-04-01T18:37:46;1.65;;;1.10;;
6527;SDS011;64597;42.664;23.256;2023-04-01T18:40:54;2.45;;;1.10;;
6527;SDS011;64597;42.664;23.256;2023-04-01T18:46:21;2.55;;;1.45;;
6527;SDS011;64597;42.664;23.256;2023-04-01T18:51:58;4.93;;;1.15;;
6527;SDS011;64597;42.664;23.256;2023-04-01T18:54:32;2.50;;;1.17;;
6527;SDS011;64597;42.664;23.256;2023-04-01T18:57:17;2.35;;;1.40;;
6527;SDS011;64597;42.664;23.256;2023-04-01T18:59:46;2.88;;;1.25;;
6527;SDS011;64597;42.664;23.256;2023-04-01T19:02:25;2.40;;;1.40;;
6527;SDS011;64597;42.664;23.256;2023-04-01T19:16:49;2.25;;;1.20;;
6527;SDS011;64597;42.664;23.256;2023-04-01T19:19:51;1.92;;;1.05;;
6527;SDS011;64597;42.664;23.256;2023-04-01T19:25:12;2.22;;;1.10;;
6527;SDS011;64597;42.664;23.256;2023-04-01T19:27:48;2.40;;;1.17;;
6527;SDS011;64597;42.664;23.256;2023-04-01T19:35:42;1.30;;;1.20;;
6527;SDS011;64597;42.664;23.256;2023-04-01T19:54:30;2.72;;;1.30;;
6527;SDS011;64597;42.664;23.256;2023-04-01T19:59:50;2.13;;;1.27;;
6527;SDS011;64597;42.664;23.256;2023-04-01T20:07:45;3.38;;;1.33;;
6527;SDS011;64597;42.664;23.256;2023-04-01T20:10:24;1.17;;;0.93;;
6527;SDS011;64597;42.664;23.256;2023-04-01T20:15:36;1.20;;;1.10;;
6527;SDS011;64597;42.664;23.256;2023-04-01T20:18:26;2.25;;;1.13;;
6527;SDS011;64597;42.664;23.256;2023-04-01T20:21:03;3.03;;;1.30;;
6527;SDS011;64597;42.664;23.256;2023-04-01T20:23:45;1.40;;;1.05;;
6527;SDS011;64597;42.664;23.256;2023-04-01T20:26:28;1.42;;;1.25;;
6527;SDS011;64597;42.664;23.256;2023-04-01T20:29:11;2.88;;;1.52;;
6527;SDS011;64597;42.664;23.256;2023-04-01T20:31:44;2.40;;;1.80;;
6527;SDS011;64597;42.664;23.256;2023-04-01T20:34:41;2.00;;;1.20;;
6527;SDS011;64597;42.664;23.256;2023-04-01T20:37:41;2.92;;;1.58;;
6527;SDS011;64597;42.664;23.256;2023-04-01T20:42:57;3.03;;;1.65;;
6527;SDS011;64597;42.664;23.256;2023-04-01T20:48:26;2.95;;;1.55;;
6527;SDS011;64597;42.664;23.256;2023-04-01T20:53:29;2.40;;;1.10;;
6527;SDS011;64597;42.664;23.256;2023-04-01T20:56:39;3.30;;;1.02;;
6527;SDS011;64597;42.664;23.256;2023-04-01T21:15:50;2.55;;;0.90;;
6527;SDS011;64597;42.664;23.256;2023-04-01T21:18:45;1.63;;;0.90;;
6527;SDS011;64597;42.664;23.256;2023-04-01T21:34:42;1.77;;;0.63;;
6527;SDS011;64597;42.664;23.256;2023-04-01T21:48:52;1.05;;;0.70;;
6527;SDS011;64597;42.664;23.256;2023-04-01T22:00:04;2.40;;;0.60;;
6527;SDS011;64597;42.664;23.256;2023-04-01T22:05:22;0.63;;;0.57;;
6527;SDS011;64597;42.664;23.256;2023-04-01T22:10:58;0.77;;;0.40;;
6527;SDS011;64597;42.664;23.256;2023-04-01T22:19:10;1.92;;;0.70;;
6527;SDS011;64597;42.664;23.256;2023-04-01T22:37:44;1.00;;;0.40;;
6527;SDS011;64597;42.664;23.256;2023-04-01T22:40:27;0.77;;;0.50;;
6527;SDS011;64597;42.664;23.256;2023-04-01T22:43:25;0.52;;;0.40;;
6527;SDS011;64597;42.664;23.256;2023-04-01T22:51:18;0.43;;;0.30;;
6527;SDS011;64597;42.664;23.256;2023-04-01T23:02:28;5.93;;;1.00;;
6527;SDS011;64597;42.664;23.256;2023-04-01T23:04:59;0.90;;;0.60;;
6527;SDS011;64597;42.664;23.256;2023-04-01T23:10:02;0.80;;;0.60;;
6527;SDS011;64597;42.664;23.256;2023-04-01T23:12:37;0.98;;;0.47;;
6527;SDS011;64597;42.664;23.256;2023-04-01T23:15:05;1.25;;;0.70;;
6527;SDS011;64597;42.664;23.256;2023-04-01T23:29:14;1.00;;;0.60;;
6527;SDS011;64597;42.664;23.256;2023-04-01T23:31:43;1.15;;;0.40;;
6527;SDS011;64597;42.664;23.256;2023-04-01T23:36:42;0.70;;;0.50;;
6527;SDS011;64597;42.664;23.256;2023-04-01T23:42:06;0.80;;;0.50;;
6527;SDS011;64597;42.664;23.256;2023-04-01T23:44:37;0.60;;;0.35;;
6527;SDS011;64597;42.664;23.256;2023-04-01T23:47:05;0.40;;;0.30;;
6527;SDS011;64597;42.664;23.256;2023-04-01T23:49:41;0.73;;;0.30;;
6527;SDS011;64597;42.664;23.256;2023-04-01T23:52:20;0.90;;;0.50;;
6527;SDS011;64597;42.664;23.256;2023-04-01T23:54:50;0.70;;;0.50;;
6527;SDS011;64597;42.664;23.256;2023-04-01T23:57:31;0.75;;;0.30;;
